Accueil
METAR-TAF:

METAR-TAF

Aéroports :

Lake City, Floride, États-Unis

latitude: 30-10-55N, longitude: 082-34-37W, altitude: 61 m

Observation

Le bulletin a été fait il y a 56 minutes, à 07:50 UTC
Vent 4 kt de sud/sud-est
Température 21°C
Humidité 94%
Pression 1018 hPa
Visibilité: 16.1 km
Nuages fragmentés à une hauteur de 200 ft

METAR: KLCQ 290750Z AUTO 15004KT 10SM BKN002 21/20 A3005 RMK AO2

Heure: 04:46 (08:46 UTC)


TAF: absent

Observations et prévisions météorologiques de plus de 4000 aéroports (messages METAR et TAF).

Les stations disponibles sont représentées par des disques jaunes et rouges sur la carte.

Passer la souris dessus pour voir le nom de la station.

Cliquer dessus pour voir les observations et prévisions météorologiques.

Pour changer de carte: cliquez sur les boutons verts avec une croix noire pour zoomer, sur le bouton vert avec un tiret pour effectuer un zoom arrière, ou sur les flèches vertes pour les cartes adjacentes.


METAR-TAF: